Aeroporto :
LOGIN :

Iscrizione | Disclaimer

   EN    FR    IT 

 










Sommario :    VFR   VFR Marginale   IFR   IFR Intensivo   IFR Molto Intensivo
Visibilità : 
Base nubi : 
>= 8 km
>= 3000ft
5 / 8 km
1000 / 3000 ft
1500m / 5 km
500 / 1000 ft
800 / 1500m
200 / 500 ft
< 800m
< 200 ft
Simboli :   Temporali  Nebbia  Neve Forte  Precipitazioni Forti  Vento > 20 kt
SIGMETs :   Varie  Temporali  Ghiacco  Turbolenza  Onda orograficha  Ceneri Vulcaniche






- Altitudine del aeroporto : 265 ft


LFMC - Le Luc

ULTIMO METAR :
  • 220300Z AUTO VRB01KT 9999 FEW003/// ///CB 15/15 Q1019

METARs OBSOLETI :
  • 220230Z AUTO 00000KT 9999 +RADZ FEW049/// ///CB 15/15 Q1019
  • 220200Z AUTO VRB01KT 9999 FEW040/// ///CB 15/15 Q1019
  • 220130Z AUTO VRB03KT 9999 BKN020/// BKN047/// BKN054/// ///CB 16/15 Q1020
  • 220100Z AUTO 00000KT 9999 ////// 15/15 Q1020
  • 220030Z AUTO VRB02KT 9999 FEW002/// BKN045/// ///TCU 15/15 Q1020

TAF N/A



MetMap, La meteo Aeronautica in un colpo d'occhio ! - Copyright ORBIFLY Dicembre 2007 - Disclaimer

ORBIFLY MET'MAP TEAM :

Programmazione e sviluppo : Alexandra Zaïnal
Concezione e sviluppo : Baudouin d'Aumeries
Co-Programmazione e sviluppo : Marc-Olivier Méhu
Supporto tecnico e logistico : Manuel Goepfert
Aiuto per la traduzione : Arnaldo La Scala

Contatto : metmap@orbifly.com




FONTI E CREDITI :

   NOAA